DAL3601 KATL-TNCM
Flight info
| Callsign | DAL3601 |
|---|---|
| Flight time | 3h 16m |
| Altitude | 37000 |
| Route | VRSTY3 NOKIE DCT YANTI Q89 MANLE Y185 RENAH Y355 SLUGO |
| Aircraft | A21N/M-SDE2E3FGHIRWXY/LB1 |
Departure
| Time | 2026-05-06 11:19 |
|---|---|
| Airport | Hartsfield Jackson Atlanta International Airport (KATL) |
Arrival
| Time | 2026-05-06 14:35 |
|---|---|
| Airport | Princess Juliana International Airport (TNCM) |
| Time | Latitude | Longitude | Altitude | Speed | Heading |
|---|---|---|---|---|---|
| 2026-05-06 11:06 | 33.64305 | -84.43865 | 1023 ft | 0 kts | 270° |
| 2026-05-06 11:09 | 33.64305 | -84.43855 | 1023 ft | 2 kts | 270° |
| 2026-05-06 11:09 | 33.64305 | -84.43842 | 1023 ft | 0 kts | 270° |
| 2026-05-06 11:10 | 33.64305 | -84.43825 | 1023 ft | 2 kts | 251° |
| 2026-05-06 11:10 | 33.64312 | -84.43809 | 1023 ft | 2 kts | 232° |
| 2026-05-06 11:10 | 33.64323 | -84.43797 | 1023 ft | 2 kts | 212° |
| 2026-05-06 11:10 | 33.64337 | -84.43789 | 1023 ft | 2 kts | 192° |
| 2026-05-06 11:11 | 33.64346 | -84.43787 | 1023 ft | 1 kts | 181° |
| 2026-05-06 11:11 | 33.64352 | -84.43787 | 1023 ft | 0 kts | 179° |
| 2026-05-06 11:12 | 33.64351 | -84.43787 | 1023 ft | 0 kts | 180° |
| 2026-05-06 11:12 | 33.64338 | -84.43787 | 1023 ft | 3 kts | 180° |
| 2026-05-06 11:13 | 33.64298 | -84.43787 | 1023 ft | 7 kts | 179° |
| 2026-05-06 11:13 | 33.64231 | -84.43788 | 1023 ft | 11 kts | 181° |
| 2026-05-06 11:13 | 33.64135 | -84.43788 | 1023 ft | 16 kts | 180° |
| 2026-05-06 11:13 | 33.64006 | -84.43787 | 1023 ft | 20 kts | 179° |
| 2026-05-06 11:14 | 33.63857 | -84.43788 | 1023 ft | 22 kts | 178° |
| 2026-05-06 11:14 | 33.63707 | -84.43780 | 1023 ft | 18 kts | 160° |
| 2026-05-06 11:14 | 33.63617 | -84.43748 | 1023 ft | 13 kts | 156° |
| 2026-05-06 11:14 | 33.63580 | -84.43630 | 1019 ft | 18 kts | 91° |
| 2026-05-06 11:15 | 33.63580 | -84.43469 | 1019 ft | 20 kts | 90° |
| 2026-05-06 11:15 | 33.63580 | -84.43282 | 1019 ft | 23 kts | 90° |
| 2026-05-06 11:15 | 33.63581 | -84.43075 | 1019 ft | 26 kts | 90° |
| 2026-05-06 11:15 | 33.63581 | -84.42850 | 1019 ft | 28 kts | 90° |
| 2026-05-06 11:16 | 33.63581 | -84.42609 | 1019 ft | 29 kts | 90° |
| 2026-05-06 11:16 | 33.63581 | -84.42361 | 1019 ft | 29 kts | 90° |
| 2026-05-06 11:16 | 33.63582 | -84.42110 | 1019 ft | 30 kts | 90° |
| 2026-05-06 11:16 | 33.63581 | -84.41863 | 1016 ft | 29 kts | 90° |
| 2026-05-06 11:17 | 33.63580 | -84.41626 | 1014 ft | 28 kts | 90° |
| 2026-05-06 11:17 | 33.63581 | -84.41393 | 1011 ft | 28 kts | 90° |
| 2026-05-06 11:17 | 33.63581 | -84.41157 | 1007 ft | 27 kts | 90° |
| 2026-05-06 11:17 | 33.63583 | -84.40966 | 1005 ft | 2 kts | 91° |
| 2026-05-06 11:18 | 33.63578 | -84.40936 | 1005 ft | 4 kts | 121° |
| 2026-05-06 11:18 | 33.63530 | -84.40910 | 1005 ft | 10 kts | 175° |
| 2026-05-06 11:18 | 33.63469 | -84.40958 | 1005 ft | 10 kts | 268° |
| 2026-05-06 11:18 | 33.63470 | -84.40990 | 1006 ft | 0 kts | 270° |
| 2026-05-06 11:19 | 33.63470 | -84.41212 | 1007 ft | 64 kts | 270° |
| 2026-05-06 11:19 | 33.63470 | -84.42034 | 1011 ft | 132 kts | 270° |
| 2026-05-06 11:19 | 33.63475 | -84.43343 | 1193 ft | 168 kts | 269° |
| 2026-05-06 11:19 | 33.63499 | -84.44661 | 1895 ft | 164 kts | 269° |
| 2026-05-06 11:20 | 33.63506 | -84.45962 | 2811 ft | 150 kts | 266° |
| 2026-05-06 11:20 | 33.63501 | -84.47175 | 3320 ft | 150 kts | 266° |
| 2026-05-06 11:20 | 33.63493 | -84.48492 | 3593 ft | 166 kts | 266° |
| 2026-05-06 11:20 | 33.63483 | -84.49949 | 3909 ft | 181 kts | 267° |
| 2026-05-06 11:21 | 33.63474 | -84.51523 | 4219 ft | 197 kts | 268° |
| 2026-05-06 11:21 | 33.63469 | -84.53254 | 4456 ft | 219 kts | 268° |
| 2026-05-06 11:21 | 33.63464 | -84.55157 | 4832 ft | 236 kts | 268° |
| 2026-05-06 11:21 | 33.63460 | -84.57156 | 5374 ft | 246 kts | 268° |
| 2026-05-06 11:22 | 33.63456 | -84.59203 | 6121 ft | 247 kts | 269° |
| 2026-05-06 11:22 | 33.63452 | -84.61250 | 6859 ft | 248 kts | 269° |
| 2026-05-06 11:22 | 33.63438 | -84.63337 | 7542 ft | 250 kts | 265° |
| 2026-05-06 11:22 | 33.62944 | -84.65313 | 8181 ft | 254 kts | 240° |
| 2026-05-06 11:23 | 33.61735 | -84.66853 | 8861 ft | 261 kts | 218° |
| 2026-05-06 11:23 | 33.60164 | -84.67978 | 9503 ft | 265 kts | 214° |
| 2026-05-06 11:23 | 33.58525 | -84.69012 | 10070 ft | 272 kts | 205° |
| 2026-05-06 11:23 | 33.56635 | -84.69434 | 10660 ft | 285 kts | 186° |
| 2026-05-06 11:24 | 33.54641 | -84.69196 | 11276 ft | 291 kts | 178° |
| 2026-05-06 11:24 | 33.52622 | -84.68810 | 11829 ft | 296 kts | 178° |
| 2026-05-06 11:24 | 33.50582 | -84.68408 | 12386 ft | 299 kts | 178° |
| 2026-05-06 11:24 | 33.48534 | -84.68012 | 12954 ft | 302 kts | 178° |
| 2026-05-06 11:25 | 33.46428 | -84.67610 | 13497 ft | 305 kts | 178° |
| 2026-05-06 11:25 | 33.44339 | -84.67207 | 14033 ft | 309 kts | 177° |
| 2026-05-06 11:25 | 33.42238 | -84.66283 | 14315 ft | 337 kts | 152° |
| 2026-05-06 11:25 | 33.40570 | -84.64211 | 14584 ft | 362 kts | 127° |
| 2026-05-06 11:26 | 33.39258 | -84.61533 | 14838 ft | 377 kts | 122° |
| 2026-05-06 11:26 | 33.37976 | -84.58738 | 15064 ft | 390 kts | 122° |
| 2026-05-06 11:26 | 33.36659 | -84.55876 | 15360 ft | 400 kts | 122° |
| 2026-05-06 11:26 | 33.35290 | -84.52943 | 15842 ft | 403 kts | 122° |
| 2026-05-06 11:27 | 33.33920 | -84.50054 | 16312 ft | 407 kts | 122° |
| 2026-05-06 11:27 | 33.32494 | -84.47073 | 16746 ft | 411 kts | 122° |
| 2026-05-06 11:27 | 33.31064 | -84.44098 | 17159 ft | 416 kts | 122° |
| 2026-05-06 11:27 | 33.29615 | -84.41093 | 17591 ft | 420 kts | 122° |
| 2026-05-06 11:28 | 33.28154 | -84.38074 | 18004 ft | 424 kts | 122° |
| 2026-05-06 11:28 | 33.26679 | -84.35027 | 18402 ft | 428 kts | 122° |
| 2026-05-06 11:28 | 33.25166 | -84.31890 | 18699 ft | 435 kts | 122° |
| 2026-05-06 11:28 | 33.23658 | -84.28763 | 19061 ft | 438 kts | 122° |
| 2026-05-06 11:29 | 33.22137 | -84.25617 | 19462 ft | 441 kts | 122° |
| 2026-05-06 11:29 | 33.20604 | -84.22452 | 19846 ft | 444 kts | 122° |
| 2026-05-06 11:29 | 33.19051 | -84.19256 | 20216 ft | 447 kts | 122° |
| 2026-05-06 11:29 | 33.17493 | -84.16059 | 20570 ft | 450 kts | 122° |
| 2026-05-06 11:30 | 33.15920 | -84.12824 | 20935 ft | 452 kts | 122° |
| 2026-05-06 11:30 | 33.14339 | -84.09579 | 21315 ft | 454 kts | 122° |
| 2026-05-06 11:30 | 33.12741 | -84.06300 | 21664 ft | 457 kts | 122° |
| 2026-05-06 11:30 | 33.11148 | -84.03042 | 22010 ft | 459 kts | 122° |
| 2026-05-06 11:31 | 33.09477 | -83.99779 | 22360 ft | 459 kts | 127° |
| 2026-05-06 11:31 | 33.07447 | -83.96874 | 22705 ft | 457 kts | 138° |
| 2026-05-06 11:31 | 33.05012 | -83.94413 | 23032 ft | 454 kts | 148° |
| 2026-05-06 11:31 | 33.02439 | -83.92248 | 23378 ft | 454 kts | 150° |
| 2026-05-06 11:32 | 32.99829 | -83.90135 | 23679 ft | 457 kts | 150° |
| 2026-05-06 11:32 | 32.97194 | -83.87998 | 23966 ft | 460 kts | 150° |
| 2026-05-06 11:32 | 32.94528 | -83.85811 | 24254 ft | 464 kts | 150° |
| 2026-05-06 11:32 | 32.91883 | -83.83624 | 24529 ft | 467 kts | 149° |
| 2026-05-06 11:33 | 32.89201 | -83.81396 | 24823 ft | 469 kts | 149° |
| 2026-05-06 11:33 | 32.86522 | -83.79174 | 25092 ft | 472 kts | 149° |
| 2026-05-06 11:33 | 32.83835 | -83.76944 | 25357 ft | 475 kts | 149° |
| 2026-05-06 11:33 | 32.81122 | -83.74689 | 25613 ft | 478 kts | 149° |
| 2026-05-06 11:34 | 32.78383 | -83.72410 | 25875 ft | 480 kts | 149° |
| 2026-05-06 11:34 | 32.75640 | -83.70126 | 26133 ft | 483 kts | 149° |
| 2026-05-06 11:34 | 32.72879 | -83.67830 | 26386 ft | 485 kts | 149° |
| 2026-05-06 11:34 | 32.70112 | -83.65531 | 26622 ft | 488 kts | 149° |
| 2026-05-06 11:35 | 32.67312 | -83.63171 | 26855 ft | 491 kts | 148° |
| 2026-05-06 11:35 | 32.64586 | -83.60783 | 27113 ft | 494 kts | 147° |
| 2026-05-06 11:35 | 32.61808 | -83.58316 | 27342 ft | 496 kts | 147° |
| 2026-05-06 11:35 | 32.59036 | -83.55853 | 27572 ft | 499 kts | 147° |
| 2026-05-06 11:36 | 32.56253 | -83.53384 | 27801 ft | 501 kts | 148° |
| 2026-05-06 11:36 | 32.53477 | -83.50931 | 28046 ft | 503 kts | 147° |
| 2026-05-06 11:36 | 32.50627 | -83.48419 | 28236 ft | 506 kts | 148° |
| 2026-05-06 11:36 | 32.47789 | -83.45921 | 28448 ft | 509 kts | 147° |
| 2026-05-06 11:37 | 32.44955 | -83.43429 | 28669 ft | 511 kts | 148° |
| 2026-05-06 11:37 | 32.42102 | -83.40920 | 28909 ft | 513 kts | 147° |
| 2026-05-06 11:37 | 32.39245 | -83.38411 | 29142 ft | 515 kts | 148° |
| 2026-05-06 11:37 | 32.36335 | -83.35858 | 29359 ft | 517 kts | 147° |
| 2026-05-06 11:38 | 32.33448 | -83.33323 | 29553 ft | 520 kts | 148° |
| 2026-05-06 11:38 | 32.30557 | -83.30775 | 29724 ft | 522 kts | 148° |
| 2026-05-06 11:38 | 32.27606 | -83.28175 | 29941 ft | 524 kts | 148° |
| 2026-05-06 11:38 | 32.24681 | -83.25609 | 30148 ft | 525 kts | 148° |
| 2026-05-06 11:39 | 32.21738 | -83.23032 | 30324 ft | 528 kts | 148° |
| 2026-05-06 11:39 | 32.18787 | -83.20451 | 30523 ft | 529 kts | 148° |
| 2026-05-06 11:39 | 32.15823 | -83.17864 | 30773 ft | 530 kts | 148° |
| 2026-05-06 11:39 | 32.12866 | -83.15286 | 31037 ft | 530 kts | 148° |
| 2026-05-06 11:40 | 32.09901 | -83.12704 | 31323 ft | 529 kts | 148° |
| 2026-05-06 11:40 | 32.06946 | -83.10133 | 31577 ft | 529 kts | 149° |
| 2026-05-06 11:40 | 32.03984 | -83.07560 | 31790 ft | 531 kts | 149° |
| 2026-05-06 11:40 | 32.01005 | -83.04974 | 32004 ft | 532 kts | 149° |
| 2026-05-06 11:41 | 31.98019 | -83.02381 | 32253 ft | 532 kts | 149° |
| 2026-05-06 11:41 | 31.95048 | -82.99805 | 32513 ft | 532 kts | 149° |
| 2026-05-06 11:41 | 31.92046 | -82.97205 | 32774 ft | 532 kts | 149° |
| 2026-05-06 11:41 | 31.89018 | -82.94589 | 33007 ft | 533 kts | 149° |
| 2026-05-06 11:42 | 31.86039 | -82.92017 | 33206 ft | 534 kts | 149° |
| 2026-05-06 11:42 | 31.83065 | -82.89453 | 33477 ft | 533 kts | 149° |
| 2026-05-06 11:42 | 31.80042 | -82.86850 | 33793 ft | 532 kts | 149° |
| 2026-05-06 11:42 | 31.77132 | -82.84214 | 34085 ft | 533 kts | 146° |
| 2026-05-06 11:43 | 31.74235 | -82.81480 | 34396 ft | 532 kts | 146° |
| 2026-05-06 11:43 | 31.71388 | -82.78770 | 34732 ft | 530 kts | 146° |
| 2026-05-06 11:43 | 31.68528 | -82.76046 | 35028 ft | 529 kts | 146° |
| 2026-05-06 11:44 | 31.62813 | -82.70614 | 35611 ft | 525 kts | 146° |
| 2026-05-06 11:44 | 31.59984 | -82.67931 | 35875 ft | 524 kts | 146° |
| 2026-05-06 11:44 | 31.57113 | -82.65211 | 36108 ft | 524 kts | 146° |
| 2026-05-06 11:44 | 31.54293 | -82.62545 | 36272 ft | 524 kts | 146° |
| 2026-05-06 11:45 | 31.51445 | -82.59858 | 36393 ft | 526 kts | 146° |
| 2026-05-06 11:45 | 31.48578 | -82.57153 | 36508 ft | 527 kts | 146° |
| 2026-05-06 11:45 | 31.45725 | -82.54461 | 36665 ft | 528 kts | 146° |
| 2026-05-06 11:45 | 31.42892 | -82.51788 | 36848 ft | 528 kts | 146° |
| 2026-05-06 11:46 | 31.40015 | -82.49079 | 37005 ft | 528 kts | 146° |
| 2026-05-06 11:46 | 31.37162 | -82.46395 | 37016 ft | 529 kts | 146° |
| 2026-05-06 11:46 | 31.31405 | -82.40981 | 37030 ft | 530 kts | 146° |
| 2026-05-06 11:47 | 31.25691 | -82.35612 | 37032 ft | 528 kts | 146° |
| 2026-05-06 11:47 | 31.19960 | -82.30218 | 37034 ft | 528 kts | 146° |
| 2026-05-06 11:48 | 31.14220 | -82.24825 | 37030 ft | 528 kts | 146° |
| 2026-05-06 11:48 | 31.08490 | -82.19461 | 37031 ft | 527 kts | 146° |
| 2026-05-06 11:49 | 31.02763 | -82.14120 | 37028 ft | 528 kts | 146° |
| 2026-05-06 11:49 | 30.97029 | -82.08782 | 37031 ft | 527 kts | 146° |
| 2026-05-06 11:50 | 30.91278 | -82.03434 | 37026 ft | 528 kts | 146° |
| 2026-05-06 11:50 | 30.85541 | -81.98127 | 37028 ft | 528 kts | 146° |
| 2026-05-06 11:51 | 30.79775 | -81.92802 | 37031 ft | 529 kts | 145° |
| 2026-05-06 11:51 | 30.73999 | -81.87455 | 37030 ft | 528 kts | 145° |
| 2026-05-06 11:52 | 30.68276 | -81.82153 | 37036 ft | 526 kts | 146° |
| 2026-05-06 11:52 | 30.62523 | -81.76874 | 37034 ft | 525 kts | 147° |
| 2026-05-06 11:53 | 30.56589 | -81.72001 | 37035 ft | 523 kts | 149° |
| 2026-05-06 11:53 | 30.50566 | -81.67175 | 37041 ft | 523 kts | 149° |
| 2026-05-06 11:54 | 30.44569 | -81.62363 | 37045 ft | 523 kts | 149° |
| 2026-05-06 11:54 | 30.38595 | -81.57558 | 37045 ft | 523 kts | 149° |
| 2026-05-06 11:55 | 30.32630 | -81.52766 | 37044 ft | 523 kts | 149° |
| 2026-05-06 11:55 | 30.26631 | -81.47955 | 37044 ft | 522 kts | 149° |
| 2026-05-06 11:56 | 30.20678 | -81.43180 | 37047 ft | 522 kts | 149° |
| 2026-05-06 11:56 | 30.14679 | -81.38377 | 37048 ft | 521 kts | 149° |
| 2026-05-06 11:57 | 30.08707 | -81.33619 | 37049 ft | 522 kts | 149° |
| 2026-05-06 11:57 | 30.02722 | -81.28828 | 37049 ft | 522 kts | 149° |
| 2026-05-06 11:58 | 29.96758 | -81.24069 | 37055 ft | 521 kts | 149° |
| 2026-05-06 11:58 | 29.90770 | -81.19311 | 37054 ft | 521 kts | 149° |
| 2026-05-06 11:59 | 29.84777 | -81.14631 | 37049 ft | 518 kts | 151° |
| 2026-05-06 11:59 | 29.78490 | -81.10662 | 37050 ft | 513 kts | 160° |
| 2026-05-06 12:00 | 29.71917 | -81.07488 | 37047 ft | 511 kts | 163° |
| 2026-05-06 12:00 | 29.65319 | -81.04414 | 37044 ft | 510 kts | 163° |
| 2026-05-06 12:01 | 29.58730 | -81.01323 | 37047 ft | 510 kts | 162° |
| 2026-05-06 12:01 | 29.52114 | -80.98207 | 37044 ft | 511 kts | 162° |
| 2026-05-06 12:02 | 29.45528 | -80.95105 | 37049 ft | 510 kts | 162° |
| 2026-05-06 12:02 | 29.38945 | -80.92007 | 37050 ft | 510 kts | 162° |
| 2026-05-06 12:03 | 29.32358 | -80.88914 | 37057 ft | 510 kts | 162° |
| 2026-05-06 12:03 | 29.25791 | -80.85835 | 37062 ft | 510 kts | 162° |
| 2026-05-06 12:04 | 29.19193 | -80.82746 | 37064 ft | 510 kts | 162° |
| 2026-05-06 12:04 | 29.12631 | -80.79675 | 37065 ft | 510 kts | 162° |
| 2026-05-06 12:05 | 29.06067 | -80.76605 | 37063 ft | 509 kts | 162° |
| 2026-05-06 12:05 | 28.99498 | -80.73537 | 37067 ft | 510 kts | 162° |
| 2026-05-06 12:06 | 28.92925 | -80.70355 | 37068 ft | 513 kts | 157° |
| 2026-05-06 12:06 | 28.86892 | -80.65926 | 37071 ft | 518 kts | 142° |
| 2026-05-06 12:07 | 28.81882 | -80.60042 | 37068 ft | 519 kts | 126° |
| 2026-05-06 12:07 | 28.77875 | -80.53220 | 37068 ft | 518 kts | 121° |
| 2026-05-06 12:08 | 28.73994 | -80.46310 | 37064 ft | 518 kts | 121° |
| 2026-05-06 12:08 | 28.70021 | -80.39485 | 37064 ft | 518 kts | 122° |
| 2026-05-06 12:09 | 28.65977 | -80.32697 | 37065 ft | 518 kts | 122° |
| 2026-05-06 12:09 | 28.61937 | -80.25882 | 37065 ft | 519 kts | 122° |
| 2026-05-06 12:10 | 28.57900 | -80.19087 | 37064 ft | 518 kts | 122° |
| 2026-05-06 12:10 | 28.53859 | -80.12299 | 37063 ft | 517 kts | 122° |
| 2026-05-06 12:11 | 28.49805 | -80.05497 | 37060 ft | 517 kts | 122° |
| 2026-05-06 12:11 | 28.45788 | -79.98772 | 37062 ft | 517 kts | 122° |
| 2026-05-06 12:12 | 28.41744 | -79.92009 | 37063 ft | 516 kts | 122° |
| 2026-05-06 12:12 | 28.37694 | -79.85248 | 37061 ft | 516 kts | 122° |
| 2026-05-06 12:13 | 28.33679 | -79.78554 | 37062 ft | 515 kts | 122° |
| 2026-05-06 12:13 | 28.29648 | -79.71847 | 37065 ft | 515 kts | 122° |
| 2026-05-06 12:14 | 28.25587 | -79.65102 | 37064 ft | 515 kts | 122° |
| 2026-05-06 12:14 | 28.21553 | -79.58405 | 37065 ft | 516 kts | 122° |
| 2026-05-06 12:15 | 28.17470 | -79.51644 | 37064 ft | 515 kts | 122° |
| 2026-05-06 12:15 | 28.13425 | -79.44952 | 37067 ft | 515 kts | 122° |
| 2026-05-06 12:16 | 28.09377 | -79.38267 | 37069 ft | 515 kts | 122° |
| 2026-05-06 12:16 | 28.05338 | -79.31597 | 37066 ft | 514 kts | 122° |
| 2026-05-06 12:17 | 28.01308 | -79.24932 | 37068 ft | 515 kts | 123° |
| 2026-05-06 12:17 | 27.97230 | -79.18224 | 37069 ft | 514 kts | 122° |
| 2026-05-06 12:18 | 27.93198 | -79.11604 | 37066 ft | 513 kts | 123° |
| 2026-05-06 12:18 | 27.89133 | -79.04955 | 37060 ft | 514 kts | 123° |
| 2026-05-06 12:19 | 27.85036 | -78.98311 | 37066 ft | 514 kts | 123° |
| 2026-05-06 12:19 | 27.80954 | -78.91666 | 37069 ft | 514 kts | 122° |
| 2026-05-06 12:20 | 27.76911 | -78.85069 | 37066 ft | 514 kts | 123° |
| 2026-05-06 12:20 | 27.72835 | -78.78429 | 37065 ft | 513 kts | 122° |
| 2026-05-06 12:21 | 27.68773 | -78.71815 | 37068 ft | 513 kts | 122° |
| 2026-05-06 12:21 | 27.64713 | -78.65214 | 37061 ft | 512 kts | 122° |
| 2026-05-06 12:22 | 27.60756 | -78.58575 | 37061 ft | 511 kts | 121° |
| 2026-05-06 12:22 | 27.56871 | -78.51874 | 37062 ft | 511 kts | 121° |
| 2026-05-06 12:23 | 27.52980 | -78.45200 | 37059 ft | 510 kts | 120° |
| 2026-05-06 12:23 | 27.49074 | -78.38519 | 37061 ft | 510 kts | 121° |
| 2026-05-06 12:24 | 27.45160 | -78.31830 | 37057 ft | 510 kts | 121° |
| 2026-05-06 12:24 | 27.41284 | -78.25198 | 37055 ft | 510 kts | 121° |
| 2026-05-06 12:25 | 27.37356 | -78.18506 | 37057 ft | 510 kts | 121° |
| 2026-05-06 12:25 | 27.33442 | -78.11861 | 37056 ft | 510 kts | 121° |
| 2026-05-06 12:26 | 27.29541 | -78.05261 | 37057 ft | 509 kts | 121° |
| 2026-05-06 12:26 | 27.25617 | -77.98621 | 37054 ft | 508 kts | 121° |
| 2026-05-06 12:27 | 27.21700 | -77.91997 | 37057 ft | 508 kts | 121° |
| 2026-05-06 12:27 | 27.17808 | -77.85429 | 37055 ft | 508 kts | 121° |
| 2026-05-06 12:28 | 27.13883 | -77.78807 | 37056 ft | 509 kts | 121° |
| 2026-05-06 12:28 | 27.09954 | -77.72192 | 37053 ft | 508 kts | 121° |
| 2026-05-06 12:29 | 27.06028 | -77.65587 | 37052 ft | 508 kts | 121° |
| 2026-05-06 12:29 | 27.02103 | -77.58994 | 37053 ft | 509 kts | 121° |
| 2026-05-06 12:30 | 26.98195 | -77.52381 | 37050 ft | 509 kts | 120° |
| 2026-05-06 12:30 | 26.94354 | -77.45782 | 37051 ft | 509 kts | 120° |
| 2026-05-06 12:31 | 26.90492 | -77.39155 | 37047 ft | 508 kts | 120° |
| 2026-05-06 12:31 | 26.86614 | -77.32546 | 37046 ft | 509 kts | 120° |
| 2026-05-06 12:32 | 26.82720 | -77.25912 | 37048 ft | 509 kts | 120° |
| 2026-05-06 12:32 | 26.78844 | -77.19295 | 37050 ft | 509 kts | 120° |
| 2026-05-06 12:33 | 26.74969 | -77.12695 | 37052 ft | 509 kts | 120° |
| 2026-05-06 12:33 | 26.71079 | -77.06077 | 37051 ft | 510 kts | 120° |
| 2026-05-06 12:34 | 26.67172 | -76.99442 | 37052 ft | 511 kts | 120° |
| 2026-05-06 12:34 | 26.63258 | -76.92803 | 37049 ft | 510 kts | 120° |
| 2026-05-06 12:35 | 26.59355 | -76.86196 | 37053 ft | 510 kts | 120° |
| 2026-05-06 12:35 | 26.55466 | -76.79621 | 37052 ft | 509 kts | 120° |
| 2026-05-06 12:36 | 26.51549 | -76.73004 | 37053 ft | 510 kts | 120° |
| 2026-05-06 12:36 | 26.47658 | -76.66442 | 37052 ft | 510 kts | 120° |
| 2026-05-06 12:37 | 26.43715 | -76.59802 | 37053 ft | 511 kts | 120° |
| 2026-05-06 12:37 | 26.39793 | -76.53211 | 37056 ft | 511 kts | 120° |
| 2026-05-06 12:38 | 26.35871 | -76.46625 | 37054 ft | 510 kts | 119° |
| 2026-05-06 12:38 | 26.31939 | -76.40034 | 37051 ft | 511 kts | 119° |
| 2026-05-06 12:39 | 26.28016 | -76.33468 | 37049 ft | 510 kts | 120° |
| 2026-05-06 12:39 | 26.24109 | -76.26907 | 37050 ft | 511 kts | 120° |
| 2026-05-06 12:40 | 26.20184 | -76.20334 | 37048 ft | 511 kts | 120° |
| 2026-05-06 12:40 | 26.16239 | -76.13757 | 37050 ft | 511 kts | 119° |
| 2026-05-06 12:41 | 26.12283 | -76.07169 | 37048 ft | 511 kts | 120° |
| 2026-05-06 12:41 | 26.08348 | -76.00633 | 37049 ft | 511 kts | 120° |
| 2026-05-06 12:42 | 26.04401 | -75.94080 | 37047 ft | 510 kts | 120° |
| 2026-05-06 12:42 | 26.00453 | -75.87540 | 37050 ft | 510 kts | 119° |
| 2026-05-06 12:43 | 25.96477 | -75.80961 | 37051 ft | 511 kts | 119° |
| 2026-05-06 12:43 | 25.92518 | -75.74414 | 37054 ft | 511 kts | 119° |
| 2026-05-06 12:44 | 25.88555 | -75.67883 | 37048 ft | 511 kts | 119° |
| 2026-05-06 12:44 | 25.84561 | -75.61356 | 37056 ft | 511 kts | 119° |
| 2026-05-06 12:45 | 25.80590 | -75.54848 | 37057 ft | 511 kts | 119° |
| 2026-05-06 12:46 | 25.74607 | -75.45034 | 37057 ft | 510 kts | 118° |
| 2026-05-06 12:46 | 25.70637 | -75.38521 | 37059 ft | 510 kts | 119° |
| 2026-05-06 12:47 | 25.66673 | -75.32020 | 37060 ft | 510 kts | 119° |
| 2026-05-06 12:47 | 25.62692 | -75.25481 | 37060 ft | 511 kts | 119° |
| 2026-05-06 12:48 | 25.58718 | -75.18979 | 37061 ft | 512 kts | 119° |
| 2026-05-06 12:48 | 25.54721 | -75.12459 | 37066 ft | 512 kts | 119° |
| 2026-05-06 12:49 | 25.50710 | -75.05926 | 37068 ft | 512 kts | 119° |
| 2026-05-06 12:49 | 25.46722 | -74.99437 | 37070 ft | 512 kts | 119° |
| 2026-05-06 12:50 | 25.42705 | -74.92915 | 37070 ft | 512 kts | 119° |
| 2026-05-06 12:50 | 25.38689 | -74.86401 | 37069 ft | 512 kts | 119° |
| 2026-05-06 12:51 | 25.34670 | -74.79896 | 37069 ft | 511 kts | 118° |
| 2026-05-06 12:51 | 25.30667 | -74.73418 | 37072 ft | 511 kts | 118° |
| 2026-05-06 12:52 | 25.26680 | -74.66979 | 37068 ft | 511 kts | 119° |
| 2026-05-06 12:52 | 25.22643 | -74.60468 | 37071 ft | 511 kts | 118° |
| 2026-05-06 12:53 | 25.18627 | -74.54001 | 37071 ft | 510 kts | 118° |
| 2026-05-06 12:53 | 25.14611 | -74.47537 | 37068 ft | 511 kts | 118° |
| 2026-05-06 12:54 | 25.10592 | -74.41081 | 37068 ft | 511 kts | 118° |
| 2026-05-06 12:54 | 25.06569 | -74.34625 | 37068 ft | 511 kts | 118° |
| 2026-05-06 12:55 | 25.02554 | -74.28170 | 37070 ft | 511 kts | 119° |
| 2026-05-06 12:55 | 24.98546 | -74.21746 | 37070 ft | 509 kts | 118° |
| 2026-05-06 12:56 | 24.94539 | -74.15331 | 37071 ft | 509 kts | 118° |
| 2026-05-06 12:56 | 24.90520 | -74.08921 | 37068 ft | 509 kts | 118° |
| 2026-05-06 12:57 | 24.86450 | -74.02471 | 37067 ft | 509 kts | 118° |
| 2026-05-06 12:57 | 24.82420 | -73.96097 | 37069 ft | 509 kts | 118° |
| 2026-05-06 12:58 | 24.78378 | -73.89676 | 37071 ft | 509 kts | 118° |
| 2026-05-06 12:58 | 24.74370 | -73.83313 | 37070 ft | 510 kts | 118° |
| 2026-05-06 12:59 | 24.70326 | -73.76898 | 37070 ft | 508 kts | 119° |
| 2026-05-06 12:59 | 24.66314 | -73.70541 | 37070 ft | 508 kts | 118° |
| 2026-05-06 13:00 | 24.62294 | -73.64168 | 37068 ft | 508 kts | 118° |
| 2026-05-06 13:00 | 24.58254 | -73.57784 | 37069 ft | 507 kts | 119° |
| 2026-05-06 13:01 | 24.54456 | -73.51280 | 37070 ft | 503 kts | 114° |
| 2026-05-06 13:01 | 24.50905 | -73.44700 | 37070 ft | 503 kts | 114° |
| 2026-05-06 13:02 | 24.47351 | -73.38100 | 37067 ft | 504 kts | 114° |
| 2026-05-06 13:02 | 24.43781 | -73.31487 | 37068 ft | 504 kts | 114° |
| 2026-05-06 13:03 | 24.40216 | -73.24881 | 37071 ft | 504 kts | 115° |
| 2026-05-06 13:03 | 24.36629 | -73.18265 | 37068 ft | 503 kts | 114° |
| 2026-05-06 13:04 | 24.33062 | -73.11692 | 37070 ft | 503 kts | 115° |
| 2026-05-06 13:04 | 24.29475 | -73.05103 | 37068 ft | 503 kts | 114° |
| 2026-05-06 13:05 | 24.25900 | -72.98546 | 37066 ft | 501 kts | 115° |
| 2026-05-06 13:05 | 24.22321 | -72.91986 | 37076 ft | 501 kts | 114° |
| 2026-05-06 13:06 | 24.18752 | -72.85452 | 37073 ft | 501 kts | 114° |
| 2026-05-06 13:06 | 24.15161 | -72.78883 | 37070 ft | 501 kts | 115° |
| 2026-05-06 13:07 | 24.11589 | -72.72360 | 37070 ft | 502 kts | 115° |
| 2026-05-06 13:07 | 24.08006 | -72.65830 | 37066 ft | 501 kts | 115° |
| 2026-05-06 13:08 | 24.04413 | -72.59290 | 37068 ft | 501 kts | 115° |
| 2026-05-06 13:08 | 24.00850 | -72.52807 | 37069 ft | 500 kts | 115° |
| 2026-05-06 13:09 | 23.97281 | -72.46318 | 37067 ft | 498 kts | 114° |
| 2026-05-06 13:09 | 23.93693 | -72.39803 | 37069 ft | 497 kts | 115° |
| 2026-05-06 13:10 | 23.90107 | -72.33306 | 37074 ft | 500 kts | 115° |
| 2026-05-06 13:10 | 23.86516 | -72.26855 | 37068 ft | 496 kts | 116° |
| 2026-05-06 13:11 | 23.82944 | -72.20433 | 37072 ft | 497 kts | 116° |
| 2026-05-06 13:11 | 23.79374 | -72.14005 | 37073 ft | 497 kts | 115° |
| 2026-05-06 13:12 | 23.75787 | -72.07533 | 37069 ft | 497 kts | 115° |
| 2026-05-06 13:12 | 23.72215 | -72.01100 | 37071 ft | 497 kts | 115° |
| 2026-05-06 13:13 | 23.68643 | -71.94676 | 37071 ft | 497 kts | 115° |
| 2026-05-06 13:13 | 23.65061 | -71.88226 | 37070 ft | 496 kts | 116° |
| 2026-05-06 13:14 | 23.61471 | -71.81840 | 37072 ft | 496 kts | 117° |
| 2026-05-06 13:14 | 23.57439 | -71.75719 | 37066 ft | 498 kts | 122° |
| 2026-05-06 13:15 | 23.53238 | -71.69694 | 37073 ft | 499 kts | 122° |
| 2026-05-06 13:15 | 23.49051 | -71.63684 | 37066 ft | 497 kts | 122° |
| 2026-05-06 13:16 | 23.44882 | -71.57680 | 37066 ft | 498 kts | 122° |
| 2026-05-06 13:16 | 23.40691 | -71.51651 | 37071 ft | 498 kts | 122° |
| 2026-05-06 13:17 | 23.36545 | -71.45688 | 37067 ft | 497 kts | 122° |
| 2026-05-06 13:17 | 23.32369 | -71.39691 | 37065 ft | 497 kts | 122° |
| 2026-05-06 13:18 | 23.28183 | -71.33683 | 37066 ft | 497 kts | 123° |
| 2026-05-06 13:18 | 23.24029 | -71.27705 | 37066 ft | 496 kts | 123° |
| 2026-05-06 13:19 | 23.19860 | -71.21723 | 37069 ft | 496 kts | 123° |
| 2026-05-06 13:19 | 23.15713 | -71.15789 | 37072 ft | 495 kts | 123° |
| 2026-05-06 13:20 | 23.11529 | -71.09815 | 37073 ft | 494 kts | 123° |
| 2026-05-06 13:20 | 23.07395 | -71.03920 | 37069 ft | 494 kts | 123° |
| 2026-05-06 13:21 | 23.03246 | -70.98009 | 37070 ft | 492 kts | 123° |
| 2026-05-06 13:21 | 22.99080 | -70.92072 | 37069 ft | 493 kts | 123° |
| 2026-05-06 13:22 | 22.94935 | -70.86178 | 37067 ft | 493 kts | 123° |
| 2026-05-06 13:22 | 22.90757 | -70.80254 | 37071 ft | 493 kts | 123° |
| 2026-05-06 13:23 | 22.86555 | -70.74354 | 37069 ft | 494 kts | 124° |
| 2026-05-06 13:23 | 22.82379 | -70.68497 | 37069 ft | 493 kts | 124° |
| 2026-05-06 13:24 | 22.78200 | -70.62614 | 37071 ft | 492 kts | 123° |
| 2026-05-06 13:24 | 22.74047 | -70.56761 | 37072 ft | 491 kts | 123° |
| 2026-05-06 13:25 | 22.69868 | -70.50874 | 37068 ft | 492 kts | 124° |
| 2026-05-06 13:25 | 22.65697 | -70.45001 | 37071 ft | 491 kts | 124° |
| 2026-05-06 13:26 | 22.61534 | -70.39154 | 37071 ft | 491 kts | 124° |
| 2026-05-06 13:26 | 22.57361 | -70.33291 | 37065 ft | 491 kts | 124° |
| 2026-05-06 13:27 | 22.53196 | -70.27424 | 37068 ft | 491 kts | 124° |
| 2026-05-06 13:27 | 22.49028 | -70.21571 | 37070 ft | 491 kts | 124° |
| 2026-05-06 13:28 | 22.44873 | -70.15750 | 37072 ft | 490 kts | 125° |
| 2026-05-06 13:28 | 22.40701 | -70.09917 | 37071 ft | 489 kts | 124° |
| 2026-05-06 13:29 | 22.36552 | -70.04121 | 37068 ft | 488 kts | 124° |
| 2026-05-06 13:29 | 22.32399 | -69.98322 | 37068 ft | 487 kts | 125° |
| 2026-05-06 13:30 | 22.28254 | -69.92553 | 37066 ft | 487 kts | 125° |
| 2026-05-06 13:30 | 22.24117 | -69.86798 | 37069 ft | 488 kts | 125° |
| 2026-05-06 13:31 | 22.19947 | -69.81020 | 37068 ft | 488 kts | 125° |
| 2026-05-06 13:31 | 22.15768 | -69.75235 | 37074 ft | 487 kts | 125° |
| 2026-05-06 13:32 | 22.11611 | -69.69477 | 37074 ft | 487 kts | 125° |
| 2026-05-06 13:32 | 22.07459 | -69.63728 | 37077 ft | 487 kts | 125° |
| 2026-05-06 13:33 | 22.03290 | -69.57960 | 37074 ft | 486 kts | 125° |
| 2026-05-06 13:33 | 21.99136 | -69.52220 | 37076 ft | 486 kts | 125° |
| 2026-05-06 13:34 | 21.95007 | -69.46516 | 37077 ft | 485 kts | 126° |
| 2026-05-06 13:34 | 21.90825 | -69.40752 | 37079 ft | 485 kts | 126° |
| 2026-05-06 13:35 | 21.86679 | -69.35068 | 37080 ft | 484 kts | 126° |
| 2026-05-06 13:35 | 21.82520 | -69.29356 | 37081 ft | 485 kts | 126° |
| 2026-05-06 13:36 | 21.78373 | -69.23650 | 37082 ft | 484 kts | 126° |
| 2026-05-06 13:36 | 21.74218 | -69.17938 | 37079 ft | 483 kts | 126° |
| 2026-05-06 13:37 | 21.70080 | -69.12259 | 37081 ft | 483 kts | 126° |
| 2026-05-06 13:37 | 21.65925 | -69.06567 | 37078 ft | 483 kts | 126° |
| 2026-05-06 13:38 | 21.61787 | -69.00901 | 37073 ft | 482 kts | 126° |
| 2026-05-06 13:38 | 21.57650 | -68.95245 | 37069 ft | 482 kts | 127° |
| 2026-05-06 13:39 | 21.53516 | -68.89596 | 37073 ft | 482 kts | 127° |
| 2026-05-06 13:39 | 21.49356 | -68.83918 | 37072 ft | 481 kts | 127° |
| 2026-05-06 13:40 | 21.45226 | -68.78288 | 37076 ft | 481 kts | 127° |
| 2026-05-06 13:40 | 21.41095 | -68.72662 | 37078 ft | 480 kts | 127° |
| 2026-05-06 13:41 | 21.36970 | -68.67051 | 37079 ft | 480 kts | 127° |
| 2026-05-06 13:41 | 21.32822 | -68.61410 | 37077 ft | 480 kts | 127° |
| 2026-05-06 13:42 | 21.28711 | -68.55828 | 37077 ft | 479 kts | 127° |
| 2026-05-06 13:42 | 21.24562 | -68.50200 | 37075 ft | 479 kts | 127° |
| 2026-05-06 13:43 | 21.20430 | -68.44602 | 37076 ft | 479 kts | 127° |
| 2026-05-06 13:43 | 21.16313 | -68.39027 | 37076 ft | 480 kts | 127° |
| 2026-05-06 13:44 | 21.12165 | -68.33411 | 37071 ft | 479 kts | 127° |
| 2026-05-06 13:44 | 21.08057 | -68.27831 | 37076 ft | 478 kts | 127° |
| 2026-05-06 13:45 | 21.03921 | -68.22235 | 37075 ft | 477 kts | 128° |
| 2026-05-06 13:45 | 20.97759 | -68.13924 | 37073 ft | 476 kts | 128° |
| 2026-05-06 13:46 | 20.93652 | -68.08391 | 37068 ft | 476 kts | 128° |
| 2026-05-06 13:46 | 20.89525 | -68.02833 | 37070 ft | 477 kts | 128° |
| 2026-05-06 13:47 | 20.85388 | -67.97301 | 37069 ft | 477 kts | 128° |
| 2026-05-06 13:47 | 20.81303 | -67.91723 | 37069 ft | 477 kts | 127° |
| 2026-05-06 13:48 | 20.77219 | -67.86107 | 37069 ft | 477 kts | 127° |
| 2026-05-06 13:48 | 20.73168 | -67.80540 | 37073 ft | 476 kts | 127° |
| 2026-05-06 13:49 | 20.69082 | -67.74931 | 37073 ft | 476 kts | 127° |
| 2026-05-06 13:49 | 20.65036 | -67.69382 | 37072 ft | 476 kts | 127° |
| 2026-05-06 13:50 | 20.60975 | -67.63818 | 37073 ft | 475 kts | 127° |
| 2026-05-06 13:50 | 20.56908 | -67.58247 | 37076 ft | 475 kts | 128° |
| 2026-05-06 13:51 | 20.52844 | -67.52689 | 37078 ft | 476 kts | 128° |
| 2026-05-06 13:51 | 20.48772 | -67.47121 | 37077 ft | 476 kts | 128° |
| 2026-05-06 13:52 | 20.44696 | -67.41548 | 37081 ft | 475 kts | 128° |
| 2026-05-06 13:52 | 20.40631 | -67.36001 | 37084 ft | 475 kts | 128° |
| 2026-05-06 13:53 | 20.36556 | -67.30450 | 37085 ft | 475 kts | 128° |
| 2026-05-06 13:53 | 20.32485 | -67.24907 | 37085 ft | 475 kts | 129° |
| 2026-05-06 13:54 | 20.28431 | -67.19396 | 37085 ft | 474 kts | 129° |
| 2026-05-06 13:54 | 20.24366 | -67.13874 | 37087 ft | 474 kts | 129° |
| 2026-05-06 13:55 | 20.20303 | -67.08360 | 37087 ft | 474 kts | 129° |
| 2026-05-06 13:55 | 20.16230 | -67.02837 | 37092 ft | 474 kts | 129° |
| 2026-05-06 13:56 | 20.12160 | -66.97321 | 37088 ft | 474 kts | 129° |
| 2026-05-06 13:56 | 20.08093 | -66.91812 | 37090 ft | 473 kts | 129° |
| 2026-05-06 13:57 | 20.04020 | -66.86304 | 37090 ft | 474 kts | 129° |
| 2026-05-06 13:57 | 20.00025 | -66.80704 | 37085 ft | 475 kts | 125° |
| 2026-05-06 13:58 | 19.96613 | -66.74705 | 37084 ft | 476 kts | 119° |
| 2026-05-06 13:58 | 19.93499 | -66.68450 | 37088 ft | 476 kts | 118° |
| 2026-05-06 13:59 | 19.90410 | -66.62229 | 37088 ft | 476 kts | 118° |
| 2026-05-06 13:59 | 19.87281 | -66.56001 | 37087 ft | 476 kts | 119° |
| 2026-05-06 14:00 | 19.84163 | -66.49815 | 37083 ft | 476 kts | 119° |
| 2026-05-06 14:00 | 19.81046 | -66.43612 | 37086 ft | 476 kts | 119° |
| 2026-05-06 14:01 | 19.77944 | -66.37433 | 37081 ft | 476 kts | 119° |
| 2026-05-06 14:01 | 19.74839 | -66.31237 | 37079 ft | 476 kts | 120° |
| 2026-05-06 14:02 | 19.71723 | -66.25009 | 37082 ft | 477 kts | 120° |
| 2026-05-06 14:02 | 19.68619 | -66.18830 | 37084 ft | 477 kts | 120° |
| 2026-05-06 14:03 | 19.65488 | -66.12611 | 37081 ft | 477 kts | 120° |
| 2026-05-06 14:03 | 19.62365 | -66.06417 | 37083 ft | 476 kts | 120° |
| 2026-05-06 14:04 | 19.59245 | -66.00237 | 37081 ft | 475 kts | 120° |
| 2026-05-06 14:04 | 19.56134 | -65.94080 | 37078 ft | 475 kts | 120° |
| 2026-05-06 14:05 | 19.53004 | -65.87895 | 37085 ft | 475 kts | 120° |
| 2026-05-06 14:05 | 19.49880 | -65.81725 | 37084 ft | 475 kts | 120° |
| 2026-05-06 14:06 | 19.46757 | -65.75564 | 37083 ft | 475 kts | 120° |
| 2026-05-06 14:06 | 19.43636 | -65.69413 | 37086 ft | 476 kts | 120° |
| 2026-05-06 14:07 | 19.40516 | -65.63264 | 37082 ft | 476 kts | 121° |
| 2026-05-06 14:07 | 19.37384 | -65.57099 | 37082 ft | 476 kts | 121° |
| 2026-05-06 14:08 | 19.34245 | -65.50918 | 37087 ft | 474 kts | 121° |
| 2026-05-06 14:08 | 19.31123 | -65.44788 | 37089 ft | 474 kts | 121° |
| 2026-05-06 14:09 | 19.27982 | -65.38656 | 37083 ft | 474 kts | 121° |
| 2026-05-06 14:09 | 19.24819 | -65.32481 | 37093 ft | 473 kts | 121° |
| 2026-05-06 14:10 | 19.21699 | -65.26360 | 37095 ft | 473 kts | 121° |
| 2026-05-06 14:10 | 19.18580 | -65.20255 | 37094 ft | 473 kts | 121° |
| 2026-05-06 14:11 | 19.15443 | -65.14130 | 37097 ft | 473 kts | 121° |
| 2026-05-06 14:11 | 19.12318 | -65.08035 | 37098 ft | 473 kts | 121° |
| 2026-05-06 14:12 | 19.09174 | -65.01913 | 37102 ft | 473 kts | 122° |
| 2026-05-06 14:12 | 19.06032 | -64.95801 | 37106 ft | 474 kts | 121° |
| 2026-05-06 14:13 | 19.02888 | -64.89691 | 37109 ft | 473 kts | 122° |
| 2026-05-06 14:13 | 18.99749 | -64.83599 | 37105 ft | 473 kts | 122° |
| 2026-05-06 14:14 | 18.96617 | -64.77521 | 37106 ft | 473 kts | 122° |
| 2026-05-06 14:14 | 18.93461 | -64.71410 | 37108 ft | 473 kts | 122° |
| 2026-05-06 14:15 | 18.90299 | -64.65290 | 37106 ft | 474 kts | 122° |
| 2026-05-06 14:15 | 18.87139 | -64.59221 | 37106 ft | 473 kts | 122° |
| 2026-05-06 14:16 | 18.83980 | -64.53162 | 37104 ft | 473 kts | 122° |
| 2026-05-06 14:16 | 18.80807 | -64.47052 | 37105 ft | 472 kts | 122° |
| 2026-05-06 14:17 | 18.77658 | -64.40984 | 37105 ft | 473 kts | 122° |
| 2026-05-06 14:17 | 18.74497 | -64.34897 | 37100 ft | 473 kts | 122° |
| 2026-05-06 14:18 | 18.71355 | -64.28816 | 36519 ft | 466 kts | 122° |
| 2026-05-06 14:18 | 18.69805 | -64.25826 | 35115 ft | 471 kts | 122° |
| 2026-05-06 14:18 | 18.68236 | -64.22813 | 33314 ft | 481 kts | 122° |
| 2026-05-06 14:19 | 18.66633 | -64.19740 | 31580 ft | 489 kts | 121° |
| 2026-05-06 14:19 | 18.64981 | -64.16576 | 29877 ft | 494 kts | 121° |
| 2026-05-06 14:19 | 18.63351 | -64.13453 | 28359 ft | 494 kts | 120° |
| 2026-05-06 14:19 | 18.61723 | -64.10327 | 27345 ft | 482 kts | 120° |
| 2026-05-06 14:20 | 18.60137 | -64.07282 | 26373 ft | 470 kts | 119° |
| 2026-05-06 14:20 | 18.58572 | -64.04279 | 25304 ft | 462 kts | 118° |
| 2026-05-06 14:20 | 18.57043 | -64.01349 | 24201 ft | 455 kts | 118° |
| 2026-05-06 14:20 | 18.55542 | -63.98476 | 23142 ft | 448 kts | 117° |
| 2026-05-06 14:21 | 18.54059 | -63.95636 | 22093 ft | 441 kts | 117° |
| 2026-05-06 14:21 | 18.52599 | -63.92827 | 21190 ft | 437 kts | 117° |
| 2026-05-06 14:21 | 18.51154 | -63.90048 | 20610 ft | 433 kts | 117° |
| 2026-05-06 14:21 | 18.49711 | -63.87278 | 20096 ft | 428 kts | 117° |
| 2026-05-06 14:22 | 18.48268 | -63.84517 | 19576 ft | 424 kts | 117° |
| 2026-05-06 14:22 | 18.46846 | -63.81797 | 19059 ft | 420 kts | 117° |
| 2026-05-06 14:22 | 18.45448 | -63.79123 | 18560 ft | 416 kts | 117° |
| 2026-05-06 14:22 | 18.44054 | -63.76458 | 18059 ft | 412 kts | 117° |
| 2026-05-06 14:23 | 18.42685 | -63.73844 | 17554 ft | 409 kts | 118° |
| 2026-05-06 14:23 | 18.41321 | -63.71243 | 17029 ft | 404 kts | 118° |
| 2026-05-06 14:23 | 18.39969 | -63.68670 | 16287 ft | 394 kts | 118° |
| 2026-05-06 14:23 | 18.38467 | -63.66348 | 15706 ft | 378 kts | 129° |
| 2026-05-06 14:24 | 18.36687 | -63.64391 | 15168 ft | 363 kts | 135° |
| 2026-05-06 14:24 | 18.34881 | -63.62602 | 14646 ft | 349 kts | 136° |
| 2026-05-06 14:24 | 18.33126 | -63.60891 | 14045 ft | 339 kts | 136° |
| 2026-05-06 14:24 | 18.31429 | -63.59229 | 13475 ft | 329 kts | 136° |
| 2026-05-06 14:25 | 18.29788 | -63.57615 | 12968 ft | 318 kts | 136° |
| 2026-05-06 14:25 | 18.28147 | -63.56115 | 12521 ft | 308 kts | 147° |
| 2026-05-06 14:25 | 18.26165 | -63.55257 | 12092 ft | 305 kts | 166° |
| 2026-05-06 14:25 | 18.24098 | -63.54811 | 11683 ft | 304 kts | 169° |
| 2026-05-06 14:26 | 18.22017 | -63.54448 | 11328 ft | 300 kts | 170° |
| 2026-05-06 14:26 | 18.19977 | -63.54113 | 11141 ft | 291 kts | 171° |
| 2026-05-06 14:26 | 18.18019 | -63.53794 | 10926 ft | 280 kts | 171° |
| 2026-05-06 14:26 | 18.16083 | -63.53480 | 10319 ft | 282 kts | 171° |
| 2026-05-06 14:27 | 18.14138 | -63.53173 | 9570 ft | 286 kts | 170° |
| 2026-05-06 14:27 | 18.12220 | -63.52757 | 8968 ft | 281 kts | 156° |
| 2026-05-06 14:27 | 18.10617 | -63.51637 | 8405 ft | 273 kts | 130° |
| 2026-05-06 14:27 | 18.09651 | -63.49984 | 7873 ft | 265 kts | 112° |
| 2026-05-06 14:28 | 18.08931 | -63.48195 | 7288 ft | 262 kts | 111° |
| 2026-05-06 14:28 | 18.08246 | -63.46461 | 6725 ft | 259 kts | 111° |
| 2026-05-06 14:28 | 18.07559 | -63.44732 | 6179 ft | 254 kts | 111° |
| 2026-05-06 14:28 | 18.06875 | -63.43021 | 5629 ft | 251 kts | 112° |
| 2026-05-06 14:29 | 18.06203 | -63.41351 | 5185 ft | 242 kts | 112° |
| 2026-05-06 14:29 | 18.05572 | -63.39787 | 4923 ft | 228 kts | 112° |
| 2026-05-06 14:29 | 18.04969 | -63.38297 | 4658 ft | 215 kts | 112° |
| 2026-05-06 14:29 | 18.04393 | -63.36874 | 4269 ft | 210 kts | 112° |
| 2026-05-06 14:30 | 18.03822 | -63.35465 | 3955 ft | 207 kts | 112° |
| 2026-05-06 14:30 | 18.03252 | -63.34053 | 3893 ft | 209 kts | 112° |
| 2026-05-06 14:30 | 18.02693 | -63.32663 | 3790 ft | 209 kts | 112° |
| 2026-05-06 14:30 | 18.02128 | -63.31261 | 3671 ft | 203 kts | 112° |
| 2026-05-06 14:31 | 18.01615 | -63.29939 | 3565 ft | 189 kts | 107° |
| 2026-05-06 14:31 | 18.01526 | -63.28595 | 3356 ft | 180 kts | 86° |
| 2026-05-06 14:31 | 18.01701 | -63.27333 | 3195 ft | 168 kts | 83° |
| 2026-05-06 14:31 | 18.01888 | -63.26144 | 2928 ft | 164 kts | 83° |
| 2026-05-06 14:32 | 18.02065 | -63.24995 | 2675 ft | 154 kts | 83° |
| 2026-05-06 14:32 | 18.02228 | -63.23913 | 2503 ft | 145 kts | 83° |
| 2026-05-06 14:32 | 18.02381 | -63.22873 | 2302 ft | 144 kts | 83° |
| 2026-05-06 14:32 | 18.02532 | -63.21840 | 2107 ft | 143 kts | 83° |
| 2026-05-06 14:33 | 18.02682 | -63.20812 | 1917 ft | 143 kts | 83° |
| 2026-05-06 14:33 | 18.02852 | -63.19778 | 1748 ft | 142 kts | 82° |
| 2026-05-06 14:33 | 18.03009 | -63.18758 | 1611 ft | 143 kts | 83° |
| 2026-05-06 14:33 | 18.03164 | -63.17717 | 1424 ft | 142 kts | 83° |
| 2026-05-06 14:34 | 18.03314 | -63.16703 | 1200 ft | 141 kts | 83° |
| 2026-05-06 14:34 | 18.03441 | -63.15688 | 997 ft | 142 kts | 85° |
| 2026-05-06 14:34 | 18.03564 | -63.14650 | 769 ft | 141 kts | 85° |
| 2026-05-06 14:34 | 18.03693 | -63.13645 | 459 ft | 140 kts | 82° |
| 2026-05-06 14:35 | 18.03849 | -63.12645 | 160 ft | 138 kts | 84° |
| 2026-05-06 14:35 | 18.03987 | -63.11645 | 23 ft | 132 kts | 84° |
| 2026-05-06 14:35 | 18.04083 | -63.10924 | 18 ft | 59 kts | 83° |
| 2026-05-06 14:35 | 18.04127 | -63.10597 | 17 ft | 32 kts | 83° |
| 2026-05-06 14:36 | 18.04124 | -63.10484 | 18 ft | 6 kts | 40° |
| 2026-05-06 14:36 | 18.04149 | -63.10498 | 18 ft | 5 kts | 277° |
| 2026-05-06 14:36 | 18.04141 | -63.10560 | 17 ft | 12 kts | 259° |
| 2026-05-06 14:36 | 18.04120 | -63.10665 | 17 ft | 17 kts | 259° |
| 2026-05-06 14:37 | 18.04098 | -63.10815 | 17 ft | 23 kts | 262° |
| 2026-05-06 14:37 | 18.04074 | -63.10983 | 18 ft | 23 kts | 262° |
| 2026-05-06 14:37 | 18.04050 | -63.11154 | 18 ft | 24 kts | 261° |
| 2026-05-06 14:37 | 18.04089 | -63.11282 | 18 ft | 18 kts | 347° |
| 2026-05-06 14:38 | 18.04194 | -63.11299 | 16 ft | 16 kts | 345° |
| 2026-05-06 14:38 | 18.04229 | -63.11394 | 16 ft | 14 kts | 261° |
| 2026-05-06 14:38 | 18.04240 | -63.11476 | 15 ft | 9 kts | 328° |
| 2026-05-06 14:38 | 18.04295 | -63.11488 | 15 ft | 3 kts | 351° |
| 2026-05-06 14:39 | 18.04297 | -63.11489 | 15 ft | 0 kts | 351° |